Ephrata, WA

8:28 AM PDT on September 02, 2014 (GMT -0700)
Grant County International | Change Station
CLOSE
Current Station
Airport
Location: Moses Lake,
Elevation: 1184 ft
Nearby Weather Stations

Elev 1184 ft 47.21 °N, 119.32 °W | Updated 36 minutes ago

Clear
Clear
57 °F
Feels Like 57 °F
N
5
Wind Variable Wind from SSE

Today
High -- | Low -- °F
--% Chance of Precip.
Yesterday
High -- | Low -- °F
Precip. -- in
6:18 AM 7:36 PM
First Quarter, 52% visible
Pressure 29.83 in
Visibility 10.0 miles
Clouds Clear
Dew Point 47 °F
Humidity 69%
Rainfall 0.00 in
Snow Depth Not available.
UV 1 out of 12
Pollen 4.30 out of 12
Air Quality Not available.
Flu Activity Not available.
METAR KMWH 021452Z 15004KT 10SM CLR 14/08 A2984 RMK AO2 SLP102 T01390083 58004

More Conditions Fewer Conditions

Pressure 29.83 in
Visibility 10.0 miles
Clouds Clear
Dew Point 47 °F
Humidity 69%
Rainfall 0.00 in
Snow Depth Not available.
UV 1 out of 12
Pollen 4.30 out of 12
Air Quality Not available.
Flu Activity Not available.
METAR KMWH 021452Z 15004KT 10SM CLR 14/08 A2984 RMK AO2 SLP102 T01390083 58004

More Conditions Fewer Conditions

10-Day Weather Forecast

Almanac

Astronomy

Sep. 02, 2014 Rise Set
Actual Time 6:18 AM PDT 7:36 PM PDT
Civil Twilight 5:46 AM PDT 8:07 PM PDT
Nautical Twilight 5:08 AM PDT 8:45 PM PDT
Astronomical Twilight 4:27 AM PDT 9:26 PM PDT
Moon 2:36 PM PDT No Moon Set
Length of Visible Light 14h 20m
Length of Day
13h 17m
Tomorrow will be 3m 17s shorter.
First Quarter, 52% of the Moon is Illuminated
Today
First Quarter
Sep 8
Full
Sep 15
Last Quarter
Sep 24
New
Oct 1
First Quarter

Today's Extremes

State Highs State Lows

Community

WunderPhotos

Upload Photos

1,749,690 photos uploaded!

Nearby

Snow Depth

Station Depth Elevation
Upper Wheeler 0 in 4400 ft
Grouse Camp 0 in 5380 ft
Blewett Pass 0 in 4270 ft
Sasse Ridge 0 in 4200 ft
Fish Lake 0 in 3371 ft

Earthquake Activity

City Distance Mag. Time & Date
No recent earthquake activity has been reported nearby.
Minimum magnitude displayed is 2.5.

Coastal Water Temperatures

Place Temperature
No Stations Reporting

Nearby Weather Stations